Time;durP1;ratioP1;P1;durP2;ratioP2;P2;SDS_P1;SDS_P2;PMS_P1;PMS_P2;Temp;Humidity;BMP_temperature;BMP_pressure;BME280_temperature;BME280_humidity;BME280_pressure;Samples;Min_cycle;Max_cycle;Signal;HPM_P1;HPM_P2
2022/10/28 00:01:06;;;;;;;28.70;10.90;;;;;;;;;;6239573;23;20006;-50
2022/10/28 00:03:42;;;;;;;31.75;12.63;;;;;;;;;;6239637;23;20024;-52
2022/10/28 00:06:11;;;;;;;29.10;10.98;;;;;;;;;;6238514;23;20024;-53
2022/10/28 00:08:38;;;;;;;36.08;12.52;;;;;;;;;;6239717;23;20099;-55
2022/10/28 00:11:19;;;;;;;25.27;9.90;;;;;;;;;;6240673;23;20028;-54
2022/10/28 00:13:46;;;;;;;35.85;12.48;;;;;;;;;;6238103;23;20031;-54
2022/10/28 00:16:24;;;;;;;37.58;13.13;;;;;;;;;;6227127;23;20480;-57
2022/10/28 00:18:52;;;;;;;41.80;13.73;;;;;;;;;;6238821;23;20020;-60
2022/10/28 00:21:24;;;;;;;38.42;13.48;;;;;;;;;;6239770;22;20074;-60
2022/10/28 00:23:58;;;;;;;46.53;13.90;;;;;;;;;;6239114;23;20055;-60
2022/10/28 00:26:27;;;;;;;28.70;11.00;;;;;;;;;;6240189;23;20020;-60
2022/10/28 00:29:06;;;;;;;32.05;11.45;;;;;;;;;;6240681;23;20024;-61
2022/10/28 00:31:33;;;;;;;30.73;11.55;;;;;;;;;;6241026;23;20484;-60
2022/10/28 00:34:01;;;;;;;22.25;9.65;;;;;;;;;;6239754;23;20474;-59
2022/10/28 00:36:36;;;;;;;19.00;8.95;;;;;;;;;;6240544;23;20349;-53
2022/10/28 00:39:07;;;;;;;24.48;8.70;;;;;;;;;;6212280;23;20024;-65
2022/10/28 00:41:36;;;;;;;19.23;9.20;;;;;;;;;;6241410;23;20535;-66
2022/10/28 00:44:29;;;;;;;19.23;8.48;;;;;;;;;;6239379;23;20024;-65
2022/10/28 00:46:56;;;;;;;17.92;8.10;;;;;;;;;;6239759;23;20358;-65
2022/10/28 00:49:31;;;;;;;18.30;8.30;;;;;;;;;;6239970;23;20099;-65
2022/10/28 00:52:04;;;;;;;14.02;6.88;;;;;;;;;;6240058;23;20062;-65
2022/10/28 00:54:38;;;;;;;19.27;8.20;;;;;;;;;;6238702;23;20095;-59
2022/10/28 00:57:15;;;;;;;17.25;7.20;;;;;;;;;;6240770;23;20020;-59
2022/10/28 00:59:45;;;;;;;11.25;6.72;;;;;;;;;;6240983;23;20098;-58
2022/10/28 01:02:19;;;;;;;15.45;7.10;;;;;;;;;;6239852;23;20103;-58
2022/10/28 01:04:47;;;;;;;18.17;6.50;;;;;;;;;;6237540;23;20103;-58
2022/10/28 01:07:15;;;;;;;14.93;7.65;;;;;;;;;;6239845;23;20026;-58
2022/10/28 01:09:49;;;;;;;19.83;6.95;;;;;;;;;;6238875;23;20020;-57
2022/10/28 01:12:34;;;;;;;14.98;6.40;;;;;;;;;;6239657;23;20099;-59
2022/10/28 01:15:15;;;;;;;17.60;7.38;;;;;;;;;;6239283;23;20024;-62
2022/10/28 01:18:00;;;;;;;17.27;7.18;;;;;;;;;;6239079;23;20099;-64
2022/10/28 01:20:59;;;;;;;14.85;6.35;;;;;;;;;;6237759;23;20484;-62
2022/10/28 01:23:32;;;;;;;11.25;6.68;;;;;;;;;;6240163;23;20103;-63
2022/10/28 01:26:15;;;;;;;13.35;6.03;;;;;;;;;;6239453;23;20472;-64
2022/10/28 01:29:00;;;;;;;15.27;7.57;;;;;;;;;;6239305;23;20099;-63
2022/10/28 01:31:40;;;;;;;16.45;7.55;;;;;;;;;;6239983;23;20023;-65
2022/10/28 01:34:25;;;;;;;14.25;6.85;;;;;;;;;;6235670;23;20028;-60
2022/10/28 01:37:08;;;;;;;13.02;6.45;;;;;;;;;;6237596;23;20020;-60
2022/10/28 01:39:54;;;;;;;13.57;7.30;;;;;;;;;;6237933;23;20099;-60
2022/10/28 01:42:28;;;;;;;16.23;7.28;;;;;;;;;;6238895;23;20023;-59
2022/10/28 01:44:55;;;;;;;9.80;6.03;;;;;;;;;;6211287;23;20499;-60
2022/10/28 01:47:25;;;;;;;13.27;6.45;;;;;;;;;;6239277;23;20016;-60
2022/10/28 01:50:05;;;;;;;8.77;5.80;;;;;;;;;;6236698;23;20099;-60
2022/10/28 01:52:40;;;;;;;8.40;5.15;;;;;;;;;;6238674;23;20030;-59
2022/10/28 01:55:12;;;;;;;8.50;5.63;;;;;;;;;;6239619;23;20414;-61
2022/10/28 01:57:48;;;;;;;10.20;5.45;;;;;;;;;;6239327;23;20024;-61
2022/10/28 02:00:15;;;;;;;11.05;6.10;;;;;;;;;;6239490;23;20020;-61
2022/10/28 02:02:49;;;;;;;14.60;5.55;;;;;;;;;;6238727;23;20024;-61
2022/10/28 02:05:36;;;;;;;13.55;6.40;;;;;;;;;;6238930;23;20028;-60
2022/10/28 02:08:22;;;;;;;11.13;5.32;;;;;;;;;;6237631;23;20028;-61
2022/10/28 02:10:49;;;;;;;13.98;5.63;;;;;;;;;;6238934;23;20016;-63
2022/10/28 02:13:26;;;;;;;11.02;5.50;;;;;;;;;;6238419;23;20099;-59
2022/10/28 02:16:17;;;;;;;12.18;5.47;;;;;;;;;;6238995;23;20669;-60
2022/10/28 02:19:01;;;;;;;10.60;5.78;;;;;;;;;;6237212;23;20020;-59
2022/10/28 02:22:00;;;;;;;8.73;5.57;;;;;;;;;;6238450;23;20030;-60
2022/10/28 02:24:34;;;;;;;8.40;4.55;;;;;;;;;;6236584;23;20020;-60
2022/10/28 02:27:06;;;;;;;7.05;5.35;;;;;;;;;;6238371;23;20030;-59
2022/10/28 02:29:40;;;;;;;7.03;5.18;;;;;;;;;;6238751;23;20103;-54
2022/10/28 02:32:17;;;;;;;7.75;4.93;;;;;;;;;;6238844;23;20030;-60
2022/10/28 02:34:45;;;;;;;7.38;5.15;;;;;;;;;;6239196;23;20020;-59
2022/10/28 02:37:26;;;;;;;10.75;5.53;;;;;;;;;;6237937;23;20032;-59
2022/10/28 02:39:56;;;;;;;11.00;5.88;;;;;;;;;;6238653;23;20020;-60
2022/10/28 02:42:32;;;;;;;9.95;5.78;;;;;;;;;;6238935;23;20411;-59
2022/10/28 02:45:04;;;;;;;10.05;6.30;;;;;;;;;;6238554;23;20028;-59
2022/10/28 02:47:40;;;;;;;6.65;5.22;;;;;;;;;;6238520;23;20017;-63
2022/10/28 02:50:09;;;;;;;9.43;5.40;;;;;;;;;;6239645;23;20221;-52
2022/10/28 02:52:37;;;;;;;7.32;5.47;;;;;;;;;;6237894;23;20570;-52
2022/10/28 02:55:11;;;;;;;13.68;6.38;;;;;;;;;;6238190;23;20054;-55
2022/10/28 02:57:41;;;;;;;11.55;5.20;;;;;;;;;;6238348;23;20016;-54
2022/10/28 03:00:17;;;;;;;10.80;6.72;;;;;;;;;;6212309;23;20024;-51
2022/10/28 03:02:44;;;;;;;7.45;5.85;;;;;;;;;;6238280;23;20420;-50
2022/10/28 03:05:19;;;;;;;12.55;8.05;;;;;;;;;;6239010;23;20024;-54
2022/10/28 03:07:46;;;;;;;12.52;7.47;;;;;;;;;;6212959;23;20038;-60
2022/10/28 03:10:13;;;;;;;13.30;8.18;;;;;;;;;;6240302;23;20026;-53
2022/10/28 03:12:47;;;;;;;12.20;8.55;;;;;;;;;;6239695;23;20038;-54
2022/10/28 03:15:14;;;;;;;16.55;10.48;;;;;;;;;;6238403;23;20031;-54
2022/10/28 03:17:48;;;;;;;14.43;9.63;;;;;;;;;;6240811;23;20019;-55
2022/10/28 03:20:22;;;;;;;17.73;11.45;;;;;;;;;;6239783;23;20020;-53
2022/10/28 03:23:03;;;;;;;20.33;13.13;;;;;;;;;;6237350;23;20022;-54
2022/10/28 03:25:30;;;;;;;18.90;12.23;;;;;;;;;;6240969;23;20030;-60
2022/10/28 03:28:04;;;;;;;17.30;12.65;;;;;;;;;;6239833;23;20021;-65
2022/10/28 03:30:31;;;;;;;17.88;11.45;;;;;;;;;;6239670;23;20095;-63
2022/10/28 03:32:58;;;;;;;26.73;15.05;;;;;;;;;;6239392;23;20095;-63
2022/10/28 03:35:32;;;;;;;24.50;13.32;;;;;;;;;;6240392;23;20024;-63
2022/10/28 03:37:59;;;;;;;24.05;14.50;;;;;;;;;;6239211;23;20059;-62
2022/10/28 03:40:34;;;;;;;28.98;14.63;;;;;;;;;;6240543;23;20024;-62
2022/10/28 03:43:01;;;;;;;29.30;16.48;;;;;;;;;;6238716;23;20020;-62
2022/10/28 03:45:28;;;;;;;29.85;16.98;;;;;;;;;;6240604;23;20024;-61
2022/10/28 03:48:02;;;;;;;35.10;19.92;;;;;;;;;;6238948;23;20123;-59
2022/10/28 03:50:29;;;;;;;40.75;19.80;;;;;;;;;;6240382;23;20402;-60
2022/10/28 03:52:56;;;;;;;40.70;20.85;;;;;;;;;;6239659;23;20469;-59
2022/10/28 03:55:30;;;;;;;53.25;25.50;;;;;;;;;;6239409;23;20026;-60
2022/10/28 03:57:59;;;;;;;47.20;23.05;;;;;;;;;;6239603;23;20030;-60
2022/10/28 04:00:33;;;;;;;49.22;25.95;;;;;;;;;;6241121;23;20024;-60
2022/10/28 04:03:00;;;;;;;61.72;28.20;;;;;;;;;;6239067;23;20026;-60
2022/10/28 04:05:27;;;;;;;60.85;26.98;;;;;;;;;;6240247;23;20485;-60
2022/10/28 04:08:01;;;;;;;58.35;27.75;;;;;;;;;;6240796;23;20027;-59
2022/10/28 04:10:28;;;;;;;45.03;23.08;;;;;;;;;;6240856;23;20489;-58
2022/10/28 04:13:03;;;;;;;56.90;25.48;;;;;;;;;;6239574;23;20020;-59
2022/10/28 04:15:30;;;;;;;59.42;28.42;;;;;;;;;;6241653;23;20024;-59
2022/10/28 04:17:57;;;;;;;59.70;28.25;;;;;;;;;;6238831;23;20545;-58
2022/10/28 04:20:38;;;;;;;68.43;30.83;;;;;;;;;;6239437;23;20070;-58
2022/10/28 04:23:15;;;;;;;55.47;26.88;;;;;;;;;;6238768;23;20377;-64
2022/10/28 04:25:53;;;;;;;58.83;28.83;;;;;;;;;;6237960;23;20103;-61
2022/10/28 04:28:27;;;;;;;67.90;31.58;;;;;;;;;;6239979;23;20020;-61
2022/10/28 04:30:54;;;;;;;60.50;30.58;;;;;;;;;;6236180;23;20038;-61
2022/10/28 04:33:21;;;;;;;59.72;32.95;;;;;;;;;;6237330;23;20020;-60
2022/10/28 04:35:55;;;;;;;54.85;27.02;;;;;;;;;;6235675;23;20050;-61
2022/10/28 04:38:22;;;;;;;58.67;30.38;;;;;;;;;;6237468;23;20026;-60
2022/10/28 04:40:56;;;;;;;70.38;33.88;;;;;;;;;;6237034;23;20024;-62
2022/10/28 04:43:23;;;;;;;60.05;29.63;;;;;;;;;;6237191;23;20027;-57
2022/10/28 04:45:50;;;;;;;75.97;34.10;;;;;;;;;;6239854;23;20102;-58
2022/10/28 04:48:24;;;;;;;78.25;34.53;;;;;;;;;;6239886;23;20403;-59
2022/10/28 04:50:52;;;;;;;71.97;35.13;;;;;;;;;;6233575;23;20020;-60
2022/10/28 04:53:19;;;;;;;68.90;33.53;;;;;;;;;;6239280;23;20469;-59
2022/10/28 04:55:56;;;;;;;67.45;33.95;;;;;;;;;;6239517;23;20022;-59
2022/10/28 04:58:24;;;;;;;68.00;32.28;;;;;;;;;;6239990;23;20048;-59
2022/10/28 05:00:58;;;;;;;51.40;28.02;;;;;;;;;;6240450;23;20365;-62
2022/10/28 05:03:25;;;;;;;64.82;31.98;;;;;;;;;;6239916;23;20094;-54
2022/10/28 05:05:52;;;;;;;56.92;31.63;;;;;;;;;;6239959;23;20477;-52
2022/10/28 05:08:26;;;;;;;62.42;30.50;;;;;;;;;;6240414;23;20473;-52
2022/10/28 05:10:53;;;;;;;72.00;34.63;;;;;;;;;;6240380;23;20553;-54
2022/10/28 05:13:27;;;;;;;70.28;34.03;;;;;;;;;;6238849;23;20020;-54
2022/10/28 05:15:54;;;;;;;71.28;34.40;;;;;;;;;;6240341;23;20099;-56
2022/10/28 05:18:21;;;;;;;60.40;33.22;;;;;;;;;;6240656;23;20362;-51
2022/10/28 05:21:02;;;;;;;68.10;34.40;;;;;;;;;;6237779;23;20030;-52
2022/10/28 05:23:29;;;;;;;87.80;40.40;;;;;;;;;;6238510;23;20020;-64
2022/10/28 05:26:03;;;;;;;91.95;42.92;;;;;;;;;;6237536;23;20370;-64
2022/10/28 05:28:30;;;;;;;113.00;45.40;;;;;;;;;;6237263;23;20038;-64
2022/10/28 05:30:57;;;;;;;93.25;43.13;;;;;;;;;;6239736;23;20103;-64
2022/10/28 05:33:32;;;;;;;128.02;49.08;;;;;;;;;;6215232;23;20016;-64
2022/10/28 05:36:00;;;;;;;102.40;46.42;;;;;;;;;;6240214;23;20030;-64
2022/10/28 05:38:33;;;;;;;100.63;44.30;;;;;;;;;;6215015;23;20727;-65
2022/10/28 05:41:00;;;;;;;123.25;46.33;;;;;;;;;;6239842;23;20020;-50
2022/10/28 05:43:27;;;;;;;180.98;56.83;;;;;;;;;;6238617;23;20360;-64
2022/10/28 05:46:02;;;;;;;153.65;52.47;;;;;;;;;;6237877;23;20753;-65
2022/10/28 05:48:29;;;;;;;157.13;50.90;;;;;;;;;;6240280;23;20016;-64
2022/10/28 05:50:57;;;;;;;101.38;42.25;;;;;;;;;;6239673;23;20473;-64
2022/10/28 05:53:30;;;;;;;101.78;41.17;;;;;;;;;;6238879;23;20020;-65
2022/10/28 05:55:57;;;;;;;92.63;37.70;;;;;;;;;;6239802;23;20357;-64
2022/10/28 05:58:24;;;;;;;117.68;44.95;;;;;;;;;;6239466;23;20023;-53
2022/10/28 06:00:58;;;;;;;144.60;51.03;;;;;;;;;;6239246;23;20034;-65
2022/10/28 06:03:25;;;;;;;177.93;52.15;;;;;;;;;;6239161;23;20016;-65
2022/10/28 06:05:59;;;;;;;141.35;48.97;;;;;;;;;;6239450;23;20024;-64
2022/10/28 06:08:26;;;;;;;254.80;63.83;;;;;;;;;;6240531;23;20059;-66
2022/10/28 06:10:54;;;;;;;383.00;65.65;;;;;;;;;;6239783;23;20047;-64
2022/10/28 06:13:28;;;;;;;192.88;58.65;;;;;;;;;;6237610;23;20024;-64
2022/10/28 06:15:56;;;;;;;510.00;85.22;;;;;;;;;;6212710;23;20373;-60
2022/10/28 06:18:30;;;;;;;246.43;63.88;;;;;;;;;;6238150;23;20027;-55
2022/10/28 06:21:11;;;;;;;279.80;67.03;;;;;;;;;;6240188;23;20034;-62
2022/10/28 06:23:47;;;;;;;242.70;57.30;;;;;;;;;;6239929;23;20027;-62
2022/10/28 06:26:14;;;;;;;239.23;61.25;;;;;;;;;;6240367;23;20736;-62
2022/10/28 06:28:41;;;;;;;336.95;67.65;;;;;;;;;;6239211;23;20054;-62
2022/10/28 06:31:15;;;;;;;238.38;60.45;;;;;;;;;;6240984;23;20034;-63
2022/10/28 06:33:42;;;;;;;251.98;62.70;;;;;;;;;;6239699;23;20094;-62
2022/10/28 06:36:09;;;;;;;248.48;60.78;;;;;;;;;;6239037;23;20452;-55
2022/10/28 06:38:43;;;;;;;262.23;62.13;;;;;;;;;;6239857;23;20082;-60
2022/10/28 06:41:10;;;;;;;254.60;63.67;;;;;;;;;;6240878;23;20574;-61
2022/10/28 06:43:37;;;;;;;277.48;65.35;;;;;;;;;;6243041;23;20108;-61
2022/10/28 06:46:11;;;;;;;124.13;45.88;;;;;;;;;;6243216;23;20020;-60
2022/10/28 06:48:45;;;;;;;147.45;49.80;;;;;;;;;;6242274;23;20052;-60
2022/10/28 06:51:12;;;;;;;170.10;52.42;;;;;;;;;;6243235;23;20031;-63
2022/10/28 06:53:39;;;;;;;117.22;44.55;;;;;;;;;;6242636;23;20099;-60
2022/10/28 06:56:13;;;;;;;203.63;55.35;;;;;;;;;;6243303;23;20024;-58
2022/10/28 06:58:40;;;;;;;253.45;57.03;;;;;;;;;;6243589;23;20361;-58
2022/10/28 07:01:14;;;;;;;174.98;48.25;;;;;;;;;;6242406;23;20424;-58
2022/10/28 07:03:41;;;;;;;134.98;42.78;;;;;;;;;;6241867;23;20350;-58
2022/10/28 07:06:09;;;;;;;119.60;39.78;;;;;;;;;;6243303;23;20127;-56
2022/10/28 07:08:43;;;;;;;115.63;37.83;;;;;;;;;;6241520;23;20396;-58
2022/10/28 07:11:10;;;;;;;140.52;40.60;;;;;;;;;;6242288;23;20020;-56
2022/10/28 07:13:38;;;;;;;132.32;39.70;;;;;;;;;;6243046;23;20055;-59
2022/10/28 07:16:15;;;;;;;120.72;36.08;;;;;;;;;;6242626;23;20078;-60
2022/10/28 07:18:42;;;;;;;138.73;37.28;;;;;;;;;;6240519;23;20016;-64
2022/10/28 07:21:27;;;;;;;167.40;40.97;;;;;;;;;;6241921;23;20360;-64
2022/10/28 07:23:55;;;;;;;222.27;46.17;;;;;;;;;;6242146;23;20020;-64
2022/10/28 07:26:29;;;;;;;177.57;40.35;;;;;;;;;;6242082;23;20032;-64
2022/10/28 07:28:56;;;;;;;142.07;37.38;;;;;;;;;;6242503;23;20030;-64
2022/10/28 07:31:23;;;;;;;149.75;37.15;;;;;;;;;;6242991;23;20023;-64
2022/10/28 07:33:57;;;;;;;42.65;18.80;;;;;;;;;;6241953;23;20031;-53
2022/10/28 07:36:31;;;;;;;95.22;27.33;;;;;;;;;;6242713;23;20030;-59
2022/10/28 07:39:11;;;;;;;68.07;22.40;;;;;;;;;;6242031;23;20020;-59
2022/10/28 07:41:38;;;;;;;38.55;17.95;;;;;;;;;;6242489;23;20103;-59
2022/10/28 07:44:12;;;;;;;58.63;20.70;;;;;;;;;;6241746;23;20020;-59
2022/10/28 07:46:39;;;;;;;54.90;19.52;;;;;;;;;;6243539;23;20038;-59
2022/10/28 07:49:07;;;;;;;52.47;18.85;;;;;;;;;;6242518;23;20050;-59
2022/10/28 07:51:41;;;;;;;40.72;16.75;;;;;;;;;;6242980;23;20103;-65
2022/10/28 07:54:08;;;;;;;25.42;12.70;;;;;;;;;;6242083;23;20098;-59
2022/10/28 07:56:42;;;;;;;25.08;12.55;;;;;;;;;;6239512;23;20034;-55
2022/10/28 07:59:09;;;;;;;32.10;13.55;;;;;;;;;;6241721;23;20461;-52
2022/10/28 08:01:36;;;;;;;32.53;13.43;;;;;;;;;;6240642;23;20421;-51
2022/10/28 08:04:10;;;;;;;27.20;11.80;;;;;;;;;;6241107;23;20024;-54
2022/10/28 08:06:37;;;;;;;38.60;13.43;;;;;;;;;;6240011;23;20020;-50
2022/10/28 08:09:04;;;;;;;36.47;12.73;;;;;;;;;;6240415;23;20099;-53
2022/10/28 08:11:38;;;;;;;27.98;11.68;;;;;;;;;;6240035;23;20099;-64
2022/10/28 08:14:05;;;;;;;20.38;10.07;;;;;;;;;;6240519;23;20091;-63
2022/10/28 08:16:39;;;;;;;16.23;7.28;;;;;;;;;;6241735;23;20095;-63
2022/10/28 08:19:06;;;;;;;18.85;9.68;;;;;;;;;;6239213;23;20529;-63
2022/10/28 08:21:34;;;;;;;24.75;9.07;;;;;;;;;;6240864;22;20024;-63
2022/10/28 08:24:15;;;;;;;20.80;8.10;;;;;;;;;;6240464;23;20504;-63
2022/10/28 08:26:42;;;;;;;18.10;7.68;;;;;;;;;;6239483;23;20035;-63
2022/10/28 08:29:16;;;;;;;18.77;8.75;;;;;;;;;;6239979;23;20020;-63
2022/10/28 08:31:43;;;;;;;20.25;9.38;;;;;;;;;;6239991;23;20059;-63
2022/10/28 08:34:10;;;;;;;22.90;9.57;;;;;;;;;;6239132;23;20016;-58
2022/10/28 08:36:44;;;;;;;21.88;8.82;;;;;;;;;;6240813;23;20024;-57
2022/10/28 08:39:11;;;;;;;24.27;8.10;;;;;;;;;;6240372;23;20454;-58
2022/10/28 08:42:03;;;;;;;18.80;8.73;;;;;;;;;;6239711;23;20496;-58
2022/10/28 08:44:30;;;;;;;23.60;9.00;;;;;;;;;;6240693;23;20031;-58
2022/10/28 08:47:07;;;;;;;18.58;7.22;;;;;;;;;;6239699;23;20480;-57
2022/10/28 08:49:36;;;;;;;12.43;7.18;;;;;;;;;;6237093;23;20016;-63
2022/10/28 08:52:21;;;;;;;12.50;6.63;;;;;;;;;;6239361;23;20024;-63
2022/10/28 08:54:59;;;;;;;13.32;7.10;;;;;;;;;;6239576;23;20099;-62
2022/10/28 08:57:44;;;;;;;10.55;6.47;;;;;;;;;;6214170;23;20095;-63
2022/10/28 09:00:20;;;;;;;11.00;5.28;;;;;;;;;;6238783;23;20020;-62
2022/10/28 09:03:05;;;;;;;14.10;6.38;;;;;;;;;;6239882;23;20069;-63
2022/10/28 09:05:40;;;;;;;10.85;5.53;;;;;;;;;;6238738;23;20051;-63
2022/10/28 09:08:12;;;;;;;9.27;5.40;;;;;;;;;;6241001;23;20107;-59
2022/10/28 09:10:46;;;;;;;;;;;;;;;;;;6240289;23;20016;-59
2022/10/28 09:13:19;;;;;;;9.00;4.40;;;;;;;;;;6239838;23;19994;-64
2022/10/28 09:16:12;;;;;;;9.40;4.35;;;;;;;;;;6240233;23;20094;-63
2022/10/28 09:18:42;;;;;;;;;;;;;;;;;;6240223;23;20102;-66
2022/10/28 09:21:44;;;;;;;6.65;3.50;;;;;;;;;;6244694;22;19922;-63
2022/10/28 09:24:18;;;;;;;5.43;3.63;;;;;;;;;;6243491;22;20016;-63
2022/10/28 09:27:01;;;;;;;9.82;3.92;;;;;;;;;;6270945;22;20031;-63
2022/10/28 09:29:37;;;;;;;9.02;4.03;;;;;;;;;;6243415;22;20099;-54
2022/10/28 09:32:14;;;;;;;7.80;4.28;;;;;;;;;;6269352;22;20565;-63
2022/10/28 09:34:46;;;;;;;10.13;4.68;;;;;;;;;;6270643;22;20027;-63
2022/10/28 09:37:36;;;;;;;11.70;5.28;;;;;;;;;;6271620;22;20106;-63
2022/10/28 09:40:12;;;;;;;9.38;4.88;;;;;;;;;;6268596;22;20607;-62
2022/10/28 09:42:50;;;;;;;13.18;5.47;;;;;;;;;;6270180;22;20066;-62
2022/10/28 09:45:22;;;;;;;19.77;5.95;;;;;;;;;;6271382;22;20019;-62
2022/10/28 09:48:14;;;;;;;19.67;6.68;;;;;;;;;;6270938;22;20026;-60
2022/10/28 09:50:43;;;;;;;19.42;6.38;;;;;;;;;;6270818;22;20459;-53
2022/10/28 09:53:17;;;;;;;26.90;7.45;;;;;;;;;;6271066;22;20047;-53
2022/10/28 09:55:44;;;;;;;23.17;9.63;;;;;;;;;;6270466;22;20024;-52
2022/10/28 09:58:12;;;;;;;35.85;11.65;;;;;;;;;;6270608;22;20106;-54
2022/10/28 10:00:46;;;;;;;40.63;10.90;;;;;;;;;;6269994;22;20020;-52
2022/10/28 10:03:20;;;;;;;38.05;12.93;;;;;;;;;;6269645;22;20552;-54
2022/10/28 10:05:49;;;;;;;33.13;9.70;;;;;;;;;;6269916;22;20103;-58
2022/10/28 10:08:18;;;;;;;24.85;8.00;;;;;;;;;;6269842;22;20457;-64
2022/10/28 10:11:04;;;;;;;31.67;8.13;;;;;;;;;;6269494;22;20061;-64
2022/10/28 10:13:36;;;;;;;30.50;7.47;;;;;;;;;;6269986;22;20031;-64
2022/10/28 10:16:17;;;;;;;30.42;7.00;;;;;;;;;;6269318;22;20030;-63
2022/10/28 10:18:50;;;;;;;31.60;6.18;;;;;;;;;;6270148;22;20094;-64
2022/10/28 10:21:53;;;;;;;25.23;5.40;;;;;;;;;;6265921;22;20066;-64
2022/10/28 10:24:30;;;;;;;23.02;5.72;;;;;;;;;;6270736;22;20031;-64
2022/10/28 10:27:26;;;;;;;20.90;4.95;;;;;;;;;;6270320;22;20396;-54
2022/10/28 10:30:00;;;;;;;22.40;4.83;;;;;;;;;;6270065;22;20030;-58
2022/10/28 10:32:34;;;;;;;19.92;5.18;;;;;;;;;;6270997;22;20023;-57
2022/10/28 10:35:01;;;;;;;14.32;4.95;;;;;;;;;;6270540;22;20020;-58
2022/10/28 10:37:29;;;;;;;15.25;4.38;;;;;;;;;;6269490;22;20134;-57
2022/10/28 10:40:05;;;;;;;16.33;4.28;;;;;;;;;;6270396;22;20043;-59
2022/10/28 10:42:33;;;;;;;17.27;4.13;;;;;;;;;;6270988;22;20020;-57
2022/10/28 10:45:27;;;;;;;17.95;3.10;;;;;;;;;;6269868;22;20454;-56
2022/10/28 10:48:14;;;;;;;17.13;3.85;;;;;;;;;;6269795;22;20030;-58
2022/10/28 10:50:49;;;;;;;11.95;3.13;;;;;;;;;;6269243;22;20412;-60
2022/10/28 10:53:19;;;;;;;16.23;3.63;;;;;;;;;;6269154;22;20029;-59
2022/10/28 10:55:50;;;;;;;16.27;3.30;;;;;;;;;;6269757;22;20024;-59
2022/10/28 10:58:24;;;;;;;;;;;;;;;;;;6270292;22;20042;-59
2022/10/28 11:00:53;;;;;;;12.65;3.05;;;;;;;;;;6267931;22;20023;-59
2022/10/28 11:03:52;;;;;;;14.73;3.17;;;;;;;;;;6269538;22;20079;-53
2022/10/28 11:06:28;;;;;;;10.10;2.90;;;;;;;;;;6193678;22;20042;-59
2022/10/28 11:09:03;;;;;;;12.65;3.30;;;;;;;;;;6268907;22;20051;-59
2022/10/28 11:11:33;;;;;;;13.73;2.88;;;;;;;;;;6270209;22;20054;-59
2022/10/28 11:14:11;;;;;;;10.65;2.72;;;;;;;;;;6269727;22;20479;-60
2022/10/28 11:16:53;;;;;;;10.88;3.38;;;;;;;;;;6268254;22;20016;-60
2022/10/28 11:19:27;;;;;;;;;;;;;;;;;;6270120;22;20031;-60
2022/10/28 11:22:19;;;;;;;9.25;2.45;;;;;;;;;;6267786;22;19922;-59
2022/10/28 11:25:08;;;;;;;6.40;2.10;;;;;;;;;;6269406;22;20094;-60
2022/10/28 11:27:54;;;;;;;8.00;2.05;;;;;;;;;;6270041;22;20030;-60
2022/10/28 11:30:43;;;;;;;9.50;2.00;;;;;;;;;;6270924;22;20074;-59
2022/10/28 11:33:16;;;;;;;5.97;2.03;;;;;;;;;;6270566;22;20078;-60
2022/10/28 11:36:02;;;;;;;6.40;2.47;;;;;;;;;;6270952;22;20031;-60
2022/10/28 11:38:45;;;;;;;8.05;2.05;;;;;;;;;;6270603;22;20624;-60
2022/10/28 11:41:19;;;;;;;8.15;2.28;;;;;;;;;;6272114;22;20099;-55
2022/10/28 11:43:51;;;;;;;5.68;2.10;;;;;;;;;;6271882;22;20030;-64
2022/10/28 11:46:28;;;;;;;11.30;2.60;;;;;;;;;;6270905;22;20020;-62
2022/10/28 11:49:02;;;;;;;7.63;2.08;;;;;;;;;;6271384;22;20023;-63
2022/10/28 11:51:35;;;;;;;8.55;2.30;;;;;;;;;;6270371;22;20022;-64
2022/10/28 11:54:15;;;;;;;8.05;2.60;;;;;;;;;;6271444;22;20122;-63
2022/10/28 11:56:42;;;;;;;7.47;2.30;;;;;;;;;;6270891;22;20094;-63
2022/10/28 11:59:28;;;;;;;5.13;2.30;;;;;;;;;;6269278;22;20023;-59
2022/10/28 12:02:02;;;;;;;12.25;2.35;;;;;;;;;;6270452;22;20024;-60
2022/10/28 12:04:50;;;;;;;7.30;2.22;;;;;;;;;;6271224;22;20465;-56
2022/10/28 12:07:32;;;;;;;6.18;1.75;;;;;;;;;;6270784;22;20023;-57
2022/10/28 12:10:06;;;;;;;3.40;1.92;;;;;;;;;;6270312;22;20030;-57
2022/10/28 12:12:37;;;;;;;4.88;1.77;;;;;;;;;;6271490;22;20026;-57
2022/10/28 12:15:31;;;;;;;5.53;1.65;;;;;;;;;;6271436;22;20024;-56
2022/10/28 12:18:01;;;;;;;5.90;2.08;;;;;;;;;;6270852;22;20461;-59
2022/10/28 12:20:35;;;;;;;3.40;1.60;;;;;;;;;;6270098;22;20043;-58
2022/10/28 12:23:11;;;;;;;4.10;1.80;;;;;;;;;;6268083;22;20103;-51
2022/10/28 12:25:47;;;;;;;6.85;2.00;;;;;;;;;;6270780;22;20784;-51
2022/10/28 12:28:24;;;;;;;12.10;1.77;;;;;;;;;;6271269;22;20074;-52
2022/10/28 12:30:58;;;;;;;3.63;1.63;;;;;;;;;;6245095;22;20042;-54
2022/10/28 12:33:43;;;;;;;3.63;1.60;;;;;;;;;;6271974;22;20098;-51
2022/10/28 12:36:24;;;;;;;5.57;1.65;;;;;;;;;;6269777;22;20353;-53
2022/10/28 12:38:55;;;;;;;5.10;1.90;;;;;;;;;;6272021;22;20023;-59
2022/10/28 12:41:42;;;;;;;7.20;1.60;;;;;;;;;;6271183;22;20346;-64
2022/10/28 12:44:12;;;;;;;4.07;1.90;;;;;;;;;;6271395;22;20400;-65
2022/10/28 12:47:22;;;;;;;2.13;1.40;;;;;;;;;;6270609;22;20015;-64
2022/10/28 12:50:01;;;;;;;1.63;1.20;;;;;;;;;;6116701;23;20105;-64
2022/10/28 12:52:35;;;;;;;2.55;1.90;;;;;;;;;;6261506;22;20468;-64
2022/10/28 12:55:21;;;;;;;5.78;1.70;;;;;;;;;;6271571;22;20338;-65
2022/10/28 12:57:59;;;;;;;5.00;1.98;;;;;;;;;;6268385;22;20023;-59
2022/10/28 13:00:28;;;;;;;3.38;1.75;;;;;;;;;;6269155;22;20023;-55
2022/10/28 13:03:06;;;;;;;2.08;1.33;;;;;;;;;;6269040;22;20047;-58
2022/10/28 13:05:39;;;;;;;6.20;1.55;;;;;;;;;;6269588;22;20024;-55
2022/10/28 13:08:19;;;;;;;2.55;1.40;;;;;;;;;;6269184;22;20034;-58
2022/10/28 13:11:05;;;;;;;8.38;1.88;;;;;;;;;;6268536;22;20026;-57
2022/10/28 13:13:46;;;;;;;4.72;1.52;;;;;;;;;;6270325;22;20020;-57
2022/10/28 13:16:19;;;;;;;2.47;1.50;;;;;;;;;;6269775;22;20026;-58
2022/10/28 13:19:04;;;;;;;2.33;1.15;;;;;;;;;;6270120;22;20022;-64
2022/10/28 13:21:56;;;;;;;14.82;1.83;;;;;;;;;;6267158;22;20111;-64
2022/10/28 13:24:37;;;;;;;3.30;1.40;;;;;;;;;;6270876;22;20023;-64
2022/10/28 13:27:05;;;;;;;4.00;1.50;;;;;;;;;;6270515;22;20537;-65
2022/10/28 13:29:40;;;;;;;3.35;1.45;;;;;;;;;;6269266;22;20029;-64
2022/10/28 13:32:23;;;;;;;5.50;1.48;;;;;;;;;;6266932;22;20024;-65
2022/10/28 13:35:15;;;;;;;3.35;1.30;;;;;;;;;;6266347;22;20027;-65
2022/10/28 13:37:45;;;;;;;5.93;1.45;;;;;;;;;;6267298;22;20034;-58
2022/10/28 13:40:22;;;;;;;1.95;1.20;;;;;;;;;;6267299;22;20027;-63
2022/10/28 13:42:49;;;;;;;4.88;1.70;;;;;;;;;;6266901;22;20027;-63
2022/10/28 13:45:42;;;;;;;3.83;1.13;;;;;;;;;;6268521;22;20020;-63
2022/10/28 13:48:28;;;;;;;7.30;1.90;;;;;;;;;;6268041;22;20033;-63
2022/10/28 13:51:08;;;;;;;2.83;1.23;;;;;;;;;;6265927;22;20475;-62
2022/10/28 13:53:45;;;;;;;1.48;1.20;;;;;;;;;;6266918;22;20082;-60
2022/10/28 13:56:27;;;;;;;4.13;1.75;;;;;;;;;;6265600;22;20019;-55
2022/10/28 13:58:59;;;;;;;3.20;1.70;;;;;;;;;;6266860;22;20039;-52
2022/10/28 14:01:41;;;;;;;3.08;1.48;;;;;;;;;;6265398;22;20334;-55
2022/10/28 14:04:38;;;;;;;2.13;1.40;;;;;;;;;;6267106;22;20520;-56
2022/10/28 14:07:20;;;;;;;2.70;1.30;;;;;;;;;;6244163;22;20027;-56
2022/10/28 14:09:49;;;;;;;7.22;1.55;;;;;;;;;;6265401;22;20428;-54
2022/10/28 14:12:33;;;;;;;6.72;1.63;;;;;;;;;;6265952;22;20481;-62
2022/10/28 14:15:02;;;;;;;3.50;1.25;;;;;;;;;;6266236;22;20451;-53
2022/10/28 14:17:40;;;;;;;1.70;1.30;;;;;;;;;;6266757;22;20023;-60
2022/10/28 14:20:22;;;;;;;2.40;1.42;;;;;;;;;;6266200;22;20065;-60
2022/10/28 14:23:21;;;;;;;4.03;1.52;;;;;;;;;;6264180;22;20024;-59
2022/10/28 14:25:55;;;;;;;2.20;1.42;;;;;;;;;;6266181;22;20055;-59
2022/10/28 14:28:28;;;;;;;3.47;1.50;;;;;;;;;;6266235;22;20065;-60
2022/10/28 14:31:09;;;;;;;6.72;1.75;;;;;;;;;;6262103;22;20046;-60
2022/10/28 14:33:42;;;;;;;5.95;1.50;;;;;;;;;;6240884;22;20024;-60
2022/10/28 14:36:16;;;;;;;4.03;1.92;;;;;;;;;;6265230;22;20020;-60
2022/10/28 14:38:49;;;;;;;4.25;1.73;;;;;;;;;;6267185;22;20423;-60
2022/10/28 14:41:19;;;;;;;6.82;1.85;;;;;;;;;;6266653;22;20029;-60
2022/10/28 14:44:02;;;;;;;7.00;1.73;;;;;;;;;;6265530;22;20093;-60
2022/10/28 14:46:35;;;;;;;6.70;1.80;;;;;;;;;;6267141;22;20103;-60
2022/10/28 14:49:35;;;;;;;2.75;1.60;;;;;;;;;;6264804;22;20474;-60
2022/10/28 14:52:10;;;;;;;6.00;1.90;;;;;;;;;;6260913;22;20094;-64
2022/10/28 14:54:47;;;;;;;4.13;1.80;;;;;;;;;;6267642;22;20102;-61
2022/10/28 14:57:15;;;;;;;7.50;2.00;;;;;;;;;;6265508;22;20559;-60
2022/10/28 14:59:43;;;;;;;7.28;2.30;;;;;;;;;;6266831;22;20720;-61
2022/10/28 15:02:30;;;;;;;5.00;1.80;;;;;;;;;;6268086;22;20020;-61
2022/10/28 15:05:25;;;;;;;8.55;2.25;;;;;;;;;;6268398;22;20063;-61
2022/10/28 15:07:52;;;;;;;4.80;2.35;;;;;;;;;;6268767;22;20031;-61
2022/10/28 15:10:28;;;;;;;10.02;2.20;;;;;;;;;;6268779;22;20506;-55
2022/10/28 15:12:56;;;;;;;3.40;1.92;;;;;;;;;;6268528;22;20027;-60